.
WxDataArchive / Data Records for 2012-08-17
2012-08-16 August 2012 2012-08-18

Data Records for Friday, 17 August 2012

Time	Temp	Chill	HIndex	Humid	Dewpt	 Wind 	HiWind	WindDir	Rain 	Barom 
-----	----	-----	------	-----	-----	------	------	-------	-----	----- 
00:00	69.3	69.3	69.3	81	63.2	3	7	292	0.00	29.837 
00:05	69.1	69.1	69.1	81	63.0	3	5	315	0.00	29.837 
00:10	69.1	69.1	69.1	81	63.0	3	9	292	0.00	29.837 
00:15	68.9	68.9	68.9	82	63.2	2	7	270	0.00	29.842 
00:20	68.8	68.8	68.8	83	63.4	3	6	270	0.00	29.842 
00:25	68.6	68.6	68.6	84	63.6	2	5	292	0.00	29.842 
00:30	68.3	68.3	68.3	85	63.6	1	4	292	0.01	29.847 
00:35	67.9	67.9	67.9	86	63.5	1	4	292	0.00	29.847 
00:40	67.6	67.6	67.6	87	63.6	0	2	292	0.00	29.847 
00:45	67.4	67.4	67.4	88	63.7	1	2	292	0.01	29.854 
00:50	67.1	67.1	67.1	88	63.4	0	2	292	0.00	29.854 
00:55	66.9	66.9	66.9	89	63.5	0	3	292	0.00	29.854 
01:00	66.9	66.9	66.9	90	63.9	0	2	292	0.01	29.857 
01:05	66.8	66.8	66.8	90	63.8	0	2	292	0.00	29.857 
01:10	66.6	66.6	66.6	91	63.9	0	1	292	0.00	29.857 
01:15	66.6	66.6	66.6	91	63.9	0	2	292	0.00	29.866 
01:20	66.6	66.6	66.6	91	63.9	0	2	292	0.00	29.866 
01:25	66.6	66.6	66.6	92	64.2	0	3	292	0.00	29.866 
01:30	66.4	66.4	66.4	92	64.0	0	1	292	0.00	29.865 
01:35	66.4	66.4	66.4	92	64.0	0	3	292	0.00	29.865 
01:40	66.4	66.4	66.4	92	64.0	0	1	292	0.00	29.865 
01:45	66.4	66.4	66.4	92	64.0	0	3	292	0.00	29.865 
01:50	66.4	66.4	66.4	92	64.0	0	2	292	0.00	29.865 
01:55	66.4	66.4	66.4	92	64.0	1	2	292	0.00	29.865 
02:00	66.4	66.4	66.4	93	64.3	0	2	292	0.00	29.863 
02:05	66.3	66.3	66.3	93	64.2	0	1	292	0.00	29.863 
02:10	66.3	66.3	66.3	93	64.2	0	1	292	0.00	29.863 
02:15	66.3	66.3	66.3	93	64.2	0	1	292	0.00	29.864 
02:20	66.3	66.3	66.3	93	64.2	0	2	292	0.00	29.864 
02:25	66.3	66.3	66.3	93	64.2	0	1	292	0.00	29.864 
02:30	66.3	66.3	66.3	93	64.2	0	1	292	0.00	29.864 
02:35	66.3	66.3	66.3	93	64.2	0	1	292	0.00	29.864 
02:40	66.3	66.3	66.3	93	64.2	0	1	292	0.00	29.864 
02:45	66.3	66.3	66.3	93	64.2	0	0	---	0.00	29.864 
02:50	66.3	66.3	66.3	93	64.2	0	1	292	0.00	29.864 
02:55	66.3	66.3	66.3	93	64.2	0	1	292	0.00	29.864 
03:00	66.1	66.1	66.1	93	64.0	0	0	---	0.00	29.866 
03:05	66.1	66.1	66.1	93	64.0	0	1	292	0.00	29.866 
03:10	66.1	66.1	66.1	93	64.0	0	0	---	0.00	29.866 
03:15	66.0	66.0	66.0	93	63.9	0	1	292	0.00	29.859 
03:20	66.0	66.0	66.0	93	63.9	0	1	292	0.00	29.859 
03:25	66.0	66.0	66.0	94	64.2	0	1	292	0.00	29.859 
03:30	66.0	66.0	66.0	93	63.9	0	1	292	0.00	29.856 
03:35	66.0	66.0	66.0	93	63.9	0	1	292	0.00	29.856 
03:40	65.8	65.8	65.8	93	63.7	0	1	292	0.00	29.856 
03:45	65.8	65.8	65.8	93	63.7	0	1	292	0.00	29.859 
03:50	65.8	65.8	65.8	93	63.7	0	1	292	0.00	29.859 
03:55	65.6	65.6	65.6	93	63.5	0	1	292	0.00	29.859 
04:00	65.6	65.6	65.6	93	63.5	0	1	292	0.00	29.861 
04:05	65.5	65.5	65.5	93	63.4	0	1	292	0.00	29.861 
04:10	65.3	65.3	65.3	93	63.2	0	1	292	0.00	29.861 
04:15	65.2	65.2	65.2	93	63.1	0	1	292	0.00	29.861 
04:20	65.0	65.0	65.0	93	62.9	0	1	292	0.00	29.861 
04:25	65.0	65.0	65.0	93	62.9	0	1	292	0.00	29.861 
04:30	64.8	64.8	64.8	93	62.7	0	0	---	0.00	29.862 
04:35	64.7	64.7	64.7	93	62.6	0	1	292	0.00	29.862 
04:40	64.5	64.5	64.5	93	62.4	0	1	292	0.00	29.862 
04:45	64.5	64.5	64.5	93	62.4	0	1	292	0.00	29.870 
04:50	64.3	64.3	64.3	93	62.2	0	0	---	0.00	29.870 
04:55	64.3	64.3	64.3	93	62.2	0	0	---	0.00	29.870 
05:00	64.2	64.2	64.2	93	62.1	0	1	292	0.00	29.876 
05:05	64.0	64.0	64.0	93	61.9	0	1	292	0.00	29.876 
05:10	63.9	63.9	63.9	93	61.8	0	1	292	0.00	29.876 
05:15	63.7	63.7	63.7	94	61.9	0	0	---	0.00	29.882 
05:20	63.5	63.5	63.5	94	61.7	0	1	292	0.00	29.882 
05:25	63.5	63.5	63.5	94	61.7	0	1	292	0.00	29.882 
05:30	63.4	63.4	63.4	94	61.6	0	0	---	0.00	29.881 
05:35	63.4	63.4	63.4	94	61.6	0	0	---	0.00	29.881 
05:40	63.2	63.2	63.2	94	61.4	0	1	292	0.00	29.881 
05:45	63.1	63.1	63.1	94	61.3	0	0	---	0.00	29.879 
05:50	63.1	63.1	63.1	94	61.3	0	0	---	0.00	29.879 
05:55	62.9	62.9	62.9	94	61.1	0	1	292	0.00	29.879 
06:00	62.9	62.9	62.9	94	61.1	0	1	292	0.00	29.879 
06:05	62.7	62.7	62.7	94	60.9	0	1	292	0.00	29.879 
06:10	62.6	62.6	62.6	94	60.8	0	1	292	0.00	29.879 
06:15	62.6	62.6	62.6	94	60.8	0	1	292	0.00	29.883 
06:20	62.4	62.4	62.4	94	60.6	0	0	---	0.00	29.883 
06:25	62.3	62.3	62.3	94	60.5	0	1	292	0.00	29.883 
06:30	62.3	62.3	62.3	94	60.5	0	1	292	0.00	29.888 
06:35	62.1	62.1	62.1	94	60.3	0	1	292	0.00	29.888 
06:40	62.1	62.1	62.1	94	60.3	0	1	292	0.00	29.888 
06:45	62.0	62.0	62.0	94	60.2	0	0	---	0.00	29.895 
06:50	61.8	61.8	61.8	94	60.1	0	0	---	0.00	29.895 
06:55	61.6	61.6	61.6	94	59.9	0	0	---	0.00	29.895 
07:00	61.5	61.5	61.5	94	59.8	0	0	---	0.00	29.898 
07:05	61.5	61.5	61.5	94	59.8	0	0	---	0.00	29.898 
07:10	61.3	61.3	61.3	94	59.6	0	0	---	0.00	29.898 
07:15	61.2	61.2	61.2	94	59.5	0	0	---	0.00	29.902 
07:20	61.2	61.2	61.2	94	59.5	0	1	292	0.00	29.902 
07:25	61.0	61.0	61.0	94	59.3	0	0	---	0.00	29.902 
07:30	61.0	61.0	61.0	94	59.3	0	0	---	0.00	29.908 
07:35	61.0	61.0	61.0	94	59.3	0	0	---	0.00	29.908 
07:40	61.0	61.0	61.0	94	59.3	0	1	292	0.00	29.908 
07:45	61.3	61.3	61.3	94	59.6	0	1	292	0.00	29.914 
07:50	61.5	61.5	61.5	95	60.1	0	1	292	0.00	29.914 
07:55	61.6	61.6	61.6	95	60.2	0	1	292	0.00	29.914 
08:00	61.8	61.8	61.8	94	60.1	0	1	292	0.00	29.916 
08:05	62.1	62.1	62.1	94	60.3	0	1	292	0.00	29.916 
08:10	62.4	62.4	62.4	94	60.6	0	1	292	0.00	29.916 
08:15	62.6	62.6	62.6	94	60.8	0	1	292	0.00	29.918 
08:20	62.9	62.9	62.9	94	61.1	0	1	292	0.00	29.918 
08:25	63.2	63.2	63.2	93	61.1	0	1	292	0.00	29.918 
08:30	63.4	63.4	63.4	92	61.0	0	1	292	0.00	29.924 
08:35	63.7	63.7	63.7	91	61.0	0	2	292	0.00	29.924 
08:40	63.9	63.9	63.9	90	60.9	1	2	292	0.00	29.924 
08:45	64.2	64.2	64.2	88	60.6	1	2	292	0.00	29.925 
08:50	64.5	64.5	64.5	87	60.5	0	2	292	0.00	29.925 
08:55	65.0	65.0	65.0	86	60.7	0	0	---	0.00	29.925 
09:00	65.5	65.5	65.5	84	60.5	0	2	292	0.00	29.922 
09:05	65.6	65.6	65.6	82	59.9	0	1	292	0.00	29.922 
09:10	65.8	65.8	65.8	81	59.8	0	1	292	0.00	29.922 
09:15	66.0	66.0	66.0	79	59.3	0	2	292	0.00	29.927 
09:20	66.3	66.3	66.3	79	59.6	0	2	292	0.00	29.927 
09:25	66.1	66.1	66.1	77	58.7	1	4	292	0.00	29.927 
09:30	66.4	66.4	66.4	77	59.0	0	1	292	0.00	29.928 
09:35	66.9	66.9	66.9	76	59.1	0	3	292	0.00	29.928 
09:40	67.4	67.4	67.4	75	59.2	0	2	202	0.00	29.928 
09:45	67.6	67.6	67.6	73	58.6	0	2	202	0.00	29.932 
09:50	67.8	67.8	67.8	73	58.8	1	3	202	0.00	29.932 
09:55	67.8	67.8	67.8	72	58.4	1	3	270	0.00	29.932 
10:00	68.1	68.1	68.1	72	58.7	0	2	270	0.00	29.931 
10:05	67.8	67.8	67.8	71	58.0	0	1	270	0.00	29.931 
10:10	68.1	68.1	68.1	73	59.1	0	1	292	0.00	29.931 
10:15	68.9	68.9	68.9	73	59.9	0	2	292	0.00	29.935 
10:20	69.9	69.9	69.9	69	59.3	0	1	292	0.00	29.935 
10:25	70.3	70.3	70.3	70	60.0	0	3	292	0.00	29.935 
10:30	70.6	70.6	70.6	66	58.7	1	2	292	0.00	29.934 
10:35	70.8	70.8	70.8	64	58.0	0	2	292	0.00	29.934 
10:40	70.6	70.6	70.6	65	58.2	0	2	292	0.00	29.934 
10:45	69.9	69.9	69.9	66	58.0	1	3	292	0.00	29.937 
10:50	69.1	69.1	69.1	68	58.1	0	1	292	0.00	29.937 
10:55	68.6	68.6	68.6	69	58.0	0	1	292	0.00	29.937 
11:00	69.1	69.1	69.1	70	58.9	0	2	292	0.00	29.937 
11:05	69.4	69.4	69.4	67	58.0	0	2	292	0.00	29.937 
11:10	69.8	69.8	69.8	68	58.7	1	2	292	0.00	29.937 
11:15	70.3	70.3	70.3	66	58.4	0	2	292	0.00	29.932 
11:20	70.3	70.3	70.3	65	58.0	0	2	292	0.00	29.932 
11:25	70.4	70.4	70.4	63	57.2	0	2	292	0.00	29.932 
11:30	71.1	71.1	71.1	61	57.0	1	3	315	0.00	29.931 
11:35	70.9	70.9	70.9	60	56.3	1	3	315	0.00	29.931 
11:40	70.3	70.3	70.3	62	56.7	1	3	315	0.00	29.931 
11:45	69.8	69.8	69.8	64	57.1	0	1	315	0.00	29.935 
11:50	70.3	70.3	70.3	63	57.1	1	3	315	0.00	29.935 
11:55	70.9	70.9	70.9	62	57.2	1	2	315	0.00	29.935 
12:00	71.5	71.5	71.5	59	56.4	1	3	315	0.00	29.934 
12:05	71.5	71.5	71.5	58	55.9	0	1	315	0.00	29.934 
12:10	70.8	70.8	70.8	60	56.2	1	4	270	0.00	29.934 
12:15	70.4	70.4	70.4	62	56.7	1	2	270	0.00	29.937 
12:20	71.6	71.6	71.6	63	58.3	1	3	68	0.00	29.937 
12:25	71.8	71.8	71.8	56	55.2	0	2	68	0.00	29.937 
12:30	71.1	71.1	71.1	56	54.6	1	3	22	0.00	29.938 
12:35	71.1	71.1	71.1	60	56.5	1	2	22	0.00	29.938 
12:40	72.0	72.0	72.0	59	56.9	0	2	22	0.00	29.938 
12:45	72.1	72.1	72.1	57	56.0	1	3	0	0.00	29.935 
12:50	71.6	71.6	71.6	55	54.6	0	3	0	0.00	29.935 
12:55	70.9	70.9	70.9	59	55.8	0	2	0	0.00	29.935 
13:00	70.6	70.6	70.6	62	56.9	0	5	0	0.00	29.938 
13:05	71.1	71.1	71.1	57	55.1	1	4	270	0.00	29.938 
13:10	72.1	72.1	72.1	55	55.0	1	4	270	0.00	29.938 
13:15	73.0	73.0	73.0	57	56.9	1	3	270	0.00	29.928 
13:20	73.3	73.3	73.3	55	56.1	2	5	270	0.00	29.928 
13:25	73.5	73.5	73.5	52	54.8	2	4	270	0.00	29.928 
13:30	73.9	73.9	73.9	54	56.2	1	3	270	0.00	29.927 
13:35	74.2	74.2	74.2	52	55.4	1	4	315	0.00	29.927 
13:40	74.6	74.6	74.6	50	54.7	1	4	292	0.00	29.927 
13:45	74.9	74.9	74.9	50	55.0	1	3	315	0.00	29.931 
13:50	74.7	74.7	74.7	50	54.8	2	5	315	0.00	29.931 
13:55	74.9	74.9	74.9	50	55.0	2	4	270	0.00	29.931 
14:00	74.9	74.9	74.9	48	53.9	2	5	315	0.00	29.930 
14:05	74.7	74.7	74.7	47	53.1	2	4	270	0.00	29.930 
14:10	74.2	74.2	74.2	49	53.8	1	3	315	0.00	29.930 
14:15	73.7	73.7	73.7	50	53.9	0	1	315	0.00	29.930 
14:20	73.9	73.9	73.9	51	54.6	0	2	315	0.00	29.930 
14:25	74.6	74.6	74.6	54	56.8	1	3	315	0.00	29.930 
14:30	75.1	75.1	77.7	46	52.9	1	3	315	0.00	29.925 
14:35	74.6	74.6	74.6	47	53.0	1	4	315	0.00	29.925 
14:40	74.7	74.7	74.7	48	53.7	1	6	315	0.00	29.925 
14:45	75.3	75.3	77.7	47	53.7	2	5	315	0.00	29.925 
14:50	75.6	75.6	77.9	47	53.9	0	2	270	0.00	29.925 
14:55	76.0	76.0	78.0	47	54.3	2	4	270	0.00	29.925 
15:00	75.4	75.4	77.8	46	53.2	2	5	315	0.00	29.923 
15:05	74.6	74.6	74.6	47	53.0	1	5	315	0.00	29.923 
15:10	74.2	74.2	74.2	51	54.9	1	4	270	0.00	29.923 
15:15	74.9	74.9	74.9	52	56.1	1	4	315	0.00	29.923 
15:20	75.4	75.4	77.8	48	54.3	1	3	315	0.00	29.923 
15:25	75.6	75.6	77.9	50	55.6	1	3	315	0.00	29.923 
15:30	76.0	76.0	78.0	48	54.9	1	3	270	0.00	29.921 
15:35	75.6	75.6	77.9	49	55.1	2	6	292	0.00	29.921 
15:40	74.7	74.7	74.7	50	54.8	1	4	315	0.00	29.921 
15:45	73.7	73.7	73.7	51	54.4	1	6	292	0.00	29.922 
15:50	73.0	73.0	73.0	53	54.8	1	3	292	0.00	29.922 
15:55	73.7	73.7	73.7	53	55.5	1	2	292	0.00	29.922 
16:00	74.4	74.4	74.4	52	55.6	1	3	292	0.00	29.919 
16:05	74.9	74.9	74.9	52	56.1	2	5	338	0.00	29.919 
16:10	75.4	75.4	77.8	50	55.4	1	3	292	0.00	29.919 
16:15	75.1	75.1	77.7	49	54.6	2	4	315	0.00	29.919 
16:20	75.3	75.3	77.7	48	54.2	2	5	315	0.00	29.919 
16:25	75.4	75.4	77.8	47	53.7	1	3	315	0.00	29.919 
16:30	75.4	75.4	77.8	48	54.3	2	4	315	0.00	29.917 
16:35	75.4	75.4	77.8	47	53.7	3	5	292	0.00	29.917 
16:40	75.4	75.4	77.8	50	55.4	2	4	292	0.00	29.917 
16:45	75.3	75.3	77.7	48	54.2	1	4	0	0.00	29.918 
16:50	74.7	74.7	74.7	49	54.3	1	4	315	0.00	29.918 
16:55	74.9	74.9	74.9	47	53.3	1	5	315	0.00	29.918 
17:00	75.1	75.1	77.7	47	53.5	1	4	315	0.00	29.917 
17:05	75.3	75.3	77.7	45	52.5	2	7	292	0.00	29.917 
17:10	75.1	75.1	77.6	45	52.3	2	5	315	0.00	29.917 
17:15	75.1	75.1	77.6	43	51.1	2	4	270	0.00	29.916 
17:20	75.3	75.3	77.7	44	51.9	1	3	270	0.00	29.916 
17:25	75.1	75.1	77.6	44	51.7	1	5	315	0.00	29.916 
17:30	75.3	75.3	77.7	47	53.7	1	4	315	0.00	29.917 
17:35	75.4	75.4	77.8	47	53.7	2	4	292	0.00	29.917 
17:40	75.4	75.4	77.8	48	54.3	2	5	292	0.00	29.917 
17:45	75.4	75.4	77.8	47	53.7	2	4	292	0.00	29.917 
17:50	75.3	75.3	77.7	48	54.2	2	4	292	0.00	29.917 
17:55	75.4	75.4	77.8	47	53.7	1	4	292	0.00	29.917 
18:00	75.1	75.1	77.7	46	52.9	1	3	315	0.00	29.915 
18:05	74.7	74.7	74.7	47	53.1	1	4	270	0.00	29.915 
18:10	74.6	74.6	74.6	46	52.4	2	5	315	0.00	29.915 
18:15	74.6	74.6	74.6	49	54.2	2	4	292	0.00	29.920 
18:20	73.9	73.9	73.9	50	54.1	1	4	315	0.00	29.920 
18:25	73.3	73.3	73.3	51	54.1	1	6	292	0.00	29.920 
18:30	73.5	73.5	73.5	50	53.7	2	5	315	0.00	29.918 
18:35	73.7	73.7	73.7	49	53.3	2	4	315	0.00	29.918 
18:40	73.9	73.9	73.9	48	53.0	2	5	270	0.00	29.918 
18:45	73.7	73.7	73.7	48	52.8	2	4	270	0.00	29.919 
18:50	73.5	73.5	73.5	51	54.2	1	4	292	0.00	29.919 
18:55	73.2	73.2	73.2	49	52.9	2	4	292	0.00	29.919 
19:00	73.2	73.2	73.2	51	54.0	1	3	315	0.00	29.921 
19:05	73.0	73.0	73.0	50	53.2	2	4	292	0.00	29.921 
19:10	72.8	72.8	72.8	50	53.1	2	6	270	0.00	29.921 
19:15	72.8	72.8	72.8	51	53.6	1	3	270	0.00	29.921 
19:20	72.7	72.7	72.7	51	53.5	1	5	270	0.00	29.921 
19:25	72.5	72.5	72.5	51	53.3	2	5	315	0.00	29.921 
19:30	72.1	72.1	72.1	51	53.0	2	4	292	0.00	29.927 
19:35	71.8	71.8	71.8	51	52.7	2	4	315	0.00	29.927 
19:40	71.6	71.6	71.6	51	52.5	1	3	315	0.00	29.927 
19:45	71.5	71.5	71.5	53	53.5	1	4	315	0.00	29.928 
19:50	71.3	71.3	71.3	53	53.3	0	2	292	0.00	29.928 
19:55	70.9	70.9	70.9	52	52.4	1	4	292	0.00	29.928 
20:00	70.6	70.6	70.6	53	52.6	0	4	292	0.00	29.932 
20:05	70.3	70.3	70.3	53	52.3	1	4	292	0.00	29.932 
20:10	70.1	70.1	70.1	54	52.7	0	1	292	0.00	29.932 
20:15	69.8	69.8	69.8	55	52.9	0	2	292	0.00	29.931 
20:20	69.4	69.4	69.4	55	52.5	1	3	338	0.00	29.931 
20:25	69.1	69.1	69.1	55	52.2	1	4	292	0.00	29.931 
20:30	68.8	68.8	68.8	56	52.5	0	2	292	0.00	29.939 
20:35	68.4	68.4	68.4	56	52.1	1	4	292	0.00	29.939 
20:40	68.3	68.3	68.3	56	52.0	0	2	292	0.00	29.939 
20:45	67.9	67.9	67.9	57	52.1	0	2	292	0.00	29.943 
20:50	67.6	67.6	67.6	57	51.8	1	4	292	0.00	29.943 
20:55	67.4	67.4	67.4	58	52.1	1	4	292	0.00	29.943 
21:00	67.3	67.3	67.3	58	52.0	1	4	292	0.00	29.946 
21:05	66.9	66.9	66.9	58	51.6	0	2	292	0.00	29.946 
21:10	66.6	66.6	66.6	58	51.4	1	3	292	0.00	29.946 
21:15	66.4	66.4	66.4	59	51.6	0	3	292	0.00	29.946 
21:20	66.3	66.3	66.3	60	52.0	1	4	315	0.00	29.946 
21:25	66.0	66.0	66.0	60	51.7	0	2	292	0.00	29.946 
21:30	65.8	65.8	65.8	61	52.0	0	4	292	0.00	29.950 
21:35	65.5	65.5	65.5	62	52.1	0	2	292	0.00	29.950 
21:40	65.2	65.2	65.2	63	52.3	0	3	292	0.00	29.950 
21:45	65.0	65.0	65.0	63	52.1	0	1	292	0.00	29.958 
21:50	64.7	64.7	64.7	64	52.2	0	1	292	0.00	29.958 
21:55	64.5	64.5	64.5	65	52.5	0	1	292	0.00	29.958 
22:00	64.2	64.2	64.2	65	52.2	0	1	292	0.00	29.963 
22:05	63.9	63.9	63.9	66	52.3	0	1	292	0.00	29.963 
22:10	63.7	63.7	63.7	66	52.1	0	1	292	0.00	29.963 
22:15	63.5	63.5	63.5	67	52.3	0	1	292	0.00	29.967 
22:20	63.4	63.4	63.4	67	52.2	0	1	292	0.00	29.967 
22:25	63.1	63.1	63.1	68	52.4	0	2	292	0.00	29.967 
22:30	62.9	62.9	62.9	68	52.2	0	1	292	0.00	29.968 
22:35	62.7	62.7	62.7	69	52.4	0	1	292	0.00	29.968 
22:40	62.4	62.4	62.4	69	52.1	0	0	---	0.00	29.968 
22:45	62.1	62.1	62.1	70	52.2	0	0	---	0.00	29.973 
22:50	62.0	62.0	62.0	70	52.1	0	0	---	0.00	29.973 
22:55	61.6	61.6	61.6	71	52.1	0	0	---	0.00	29.973 
23:00	61.5	61.5	61.5	71	52.0	0	0	---	0.00	29.973 
23:05	61.2	61.2	61.2	72	52.1	0	0	---	0.00	29.973 
23:10	60.9	60.9	60.9	72	51.8	0	0	---	0.00	29.973 
23:15	60.5	60.5	60.5	72	51.4	0	0	---	0.00	29.974 
23:20	60.2	60.2	60.2	73	51.5	0	0	---	0.00	29.974 
23:25	60.1	60.1	60.1	73	51.4	0	0	---	0.00	29.974 
23:30	59.8	59.8	59.8	73	51.1	0	0	---	0.00	29.975 
23:35	59.5	59.5	59.5	73	50.8	0	0	---	0.00	29.975 
23:40	59.2	59.2	59.2	73	50.5	0	0	---	0.00	29.975 
23:45	58.9	58.9	58.9	73	50.3	0	0	---	0.00	29.980 
23:50	58.7	58.7	58.7	74	50.4	0	0	---	0.00	29.980 
23:55	58.4	58.4	58.4	75	50.5	0	0	---	0.00	29.980 

CoCoRaHS
IN-AL-39
A2 Web Hosting
Creative Commons License
GoDaddy
search engine by freefind advanced

loaded 2018-11-13 23:50:08 • last modified 2010-11-18 10:43:29
Privacy PolicyDisclaimer
• wx.awcolley.com is powered by PmWiki v.2002016 •
• all content (unless otherwise noted) © 2018 A W Colley